Time;durP1;ratioP1;P1;durP2;ratioP2;P2;SDS_P1;SDS_P2;PMS_P1;PMS_P2;Temp;Humidity;BMP_temperature;BMP_pressure;BME280_temperature;BME280_humidity;BME280_pressure;Samples;Min_cycle;Max_cycle;Signal;HPM_P1;HPM_P2
2022/08/27 00:01:30;;;;;;;10.15;2.92;;;16.70;99.90;;;;;;4993105;28;20187;-53
2022/08/27 00:03:56;;;;;;;7.05;3.13;;;16.70;99.90;;;;;;4993012;28;20172;-53
2022/08/27 00:06:23;;;;;;;7.15;2.97;;;16.70;99.90;;;;;;4993013;28;20171;-50
2022/08/27 00:08:49;;;;;;;7.43;2.70;;;16.70;99.90;;;;;;4992855;28;20479;-51
2022/08/27 00:11:17;;;;;;;11.48;2.60;;;16.70;99.90;;;;;;4992733;28;20223;-52
2022/08/27 00:13:44;;;;;;;8.43;2.53;;;16.70;99.90;;;;;;4992796;28;20194;-50
2022/08/27 00:16:11;;;;;;;8.23;2.85;;;16.70;99.90;;;;;;4992891;28;20622;-51
2022/08/27 00:18:38;;;;;;;5.55;2.30;;;16.70;99.90;;;;;;4992946;28;20199;-51
2022/08/27 00:21:04;;;;;;;5.72;2.80;;;16.70;99.90;;;;;;4992666;28;20171;-53
2022/08/27 00:23:30;;;;;;;9.75;2.53;;;16.70;99.90;;;;;;4992724;28;20253;-52
2022/08/27 00:25:57;;;;;;;5.75;2.60;;;16.70;99.90;;;;;;4992558;28;20250;-52
2022/08/27 00:28:25;;;;;;;5.90;2.40;;;16.70;99.90;;;;;;4992370;28;20749;-52
2022/08/27 00:30:50;;;;;;;6.15;2.38;;;16.70;99.90;;;;;;4992491;28;20686;-53
2022/08/27 00:33:16;;;;;;;5.30;2.30;;;16.70;99.90;;;;;;4992510;28;20183;-52
2022/08/27 00:35:42;;;;;;;4.50;2.42;;;16.60;99.90;;;;;;4992439;28;20185;-52
2022/08/27 00:38:08;;;;;;;4.25;2.25;;;16.60;99.90;;;;;;4992491;28;20653;-51
2022/08/27 00:40:34;;;;;;;7.90;2.13;;;16.60;99.90;;;;;;4992286;28;20191;-52
2022/08/27 00:43:02;;;;;;;5.70;2.35;;;16.50;99.90;;;;;;4992206;28;20172;-51
2022/08/27 00:45:35;;;;;;;6.43;2.38;;;16.50;99.90;;;;;;4992182;28;20180;-51
2022/08/27 00:48:01;;;;;;;5.60;2.22;;;16.40;99.90;;;;;;4992491;28;20167;-52
2022/08/27 00:50:34;;;;;;;5.93;2.55;;;16.30;99.90;;;;;;4992149;28;20221;-52
2022/08/27 00:53:09;;;;;;;4.05;2.42;;;16.30;99.90;;;;;;4992181;28;20171;-52
2022/08/27 00:55:47;;;;;;;3.20;2.10;;;16.30;99.90;;;;;;4992068;28;20185;-52
2022/08/27 00:58:32;;;;;;;3.65;2.17;;;16.20;99.90;;;;;;4992025;28;20280;-51
2022/08/27 01:00:58;;;;;;;5.07;2.38;;;16.20;99.90;;;;;;4992006;28;20222;-51
2022/08/27 01:03:25;;;;;;;5.30;2.33;;;16.20;99.90;;;;;;4991884;28;20171;-51
2022/08/27 01:05:53;;;;;;;6.97;2.30;;;16.20;99.90;;;;;;4991555;28;20194;-51
2022/08/27 01:08:25;;;;;;;4.68;2.22;;;16.10;99.90;;;;;;4991891;28;20535;-51
2022/08/27 01:10:54;;;;;;;6.88;2.08;;;16.10;99.90;;;;;;4991865;28;20226;-51
2022/08/27 01:13:22;;;;;;;8.13;2.63;;;16.00;99.90;;;;;;4991894;28;20166;-51
2022/08/27 01:15:48;;;;;;;4.35;2.17;;;15.90;99.90;;;;;;4991881;28;20182;-51
2022/08/27 01:18:14;;;;;;;2.97;2.00;;;15.90;99.90;;;;;;4991706;28;20634;-51
2022/08/27 01:21:08;;;;;;;3.78;2.30;;;15.80;99.90;;;;;;4991667;28;20179;-51
2022/08/27 01:24:14;;;;;;;4.32;2.28;;;15.90;99.90;;;;;;4991713;28;20590;-51
2022/08/27 01:26:40;;;;;;;3.65;1.83;;;15.80;99.90;;;;;;4974296;28;20202;-51
2022/08/27 01:29:06;;;;;;;5.50;2.08;;;15.80;99.90;;;;;;4990030;28;20227;-51
2022/08/27 01:31:32;;;;;;;2.47;2.00;;;15.80;99.90;;;;;;4991560;28;20230;-51
2022/08/27 01:34:04;;;;;;;9.35;2.30;;;15.80;99.90;;;;;;4991537;28;20174;-51
2022/08/27 01:36:30;;;;;;;3.92;2.10;;;15.70;99.90;;;;;;4991606;28;20167;-51
2022/08/27 01:38:56;;;;;;;6.45;2.60;;;15.70;99.90;;;;;;4991636;28;20167;-51
2022/08/27 01:41:24;;;;;;;3.08;2.00;;;15.70;99.90;;;;;;4991508;28;20617;-51
2022/08/27 01:43:50;;;;;;;6.25;2.10;;;15.60;99.90;;;;;;4991589;28;20167;-51
2022/08/27 01:46:24;;;;;;;5.53;2.20;;;15.50;99.90;;;;;;4991543;28;20194;-51
2022/08/27 01:48:50;;;;;;;7.35;2.30;;;15.50;99.90;;;;;;4991849;28;20170;-51
2022/08/27 01:51:16;;;;;;;5.65;2.38;;;15.50;99.90;;;;;;4991416;28;20245;-51
2022/08/27 01:53:41;;;;;;;2.67;1.90;;;15.50;99.90;;;;;;4991385;28;20720;-51
2022/08/27 01:56:07;;;;;;;5.53;1.80;;;15.50;99.90;;;;;;4991445;28;20529;-51
2022/08/27 01:58:34;;;;;;;3.33;2.22;;;15.50;99.90;;;;;;4991388;28;20199;-52
2022/08/27 02:01:08;;;;;;;4.18;2.10;;;15.50;99.90;;;;;;4991366;28;20167;-51
2022/08/27 02:03:38;;;;;;;6.90;2.13;;;15.50;99.90;;;;;;4991348;28;20177;-51
2022/08/27 02:06:06;;;;;;;4.63;1.92;;;15.50;99.90;;;;;;4991277;28;20226;-52
2022/08/27 02:08:32;;;;;;;3.78;2.10;;;15.50;99.90;;;;;;4991328;28;20182;-51
2022/08/27 02:10:58;;;;;;;4.18;2.15;;;15.50;99.90;;;;;;4991190;28;20215;-51
2022/08/27 02:13:25;;;;;;;6.03;2.05;;;15.50;99.90;;;;;;4991175;28;20818;-51
2022/08/27 02:15:50;;;;;;;4.55;2.20;;;15.40;99.90;;;;;;4991294;28;20171;-52
2022/08/27 02:18:17;;;;;;;3.50;2.05;;;15.40;99.90;;;;;;4993446;28;20175;-52
2022/08/27 02:20:45;;;;;;;4.40;2.45;;;15.40;99.90;;;;;;4994986;28;20171;-51
2022/08/27 02:23:10;;;;;;;6.32;2.70;;;15.40;99.90;;;;;;4994836;28;20182;-51
2022/08/27 02:25:36;;;;;;;5.70;2.38;;;15.40;99.90;;;;;;4994852;28;20175;-51
2022/08/27 02:28:03;;;;;;;5.88;2.47;;;15.40;99.90;;;;;;4994972;28;20179;-51
2022/08/27 02:30:31;;;;;;;2.95;1.92;;;15.40;99.90;;;;;;4994538;28;20722;-51
2022/08/27 02:32:59;;;;;;;2.70;1.83;;;15.30;99.90;;;;;;4994671;28;20174;-52
2022/08/27 02:35:25;;;;;;;3.55;1.98;;;15.30;99.90;;;;;;4994611;28;20175;-51
2022/08/27 02:37:51;;;;;;;4.07;1.92;;;15.30;99.90;;;;;;4994646;28;20197;-52
2022/08/27 02:40:20;;;;;;;2.88;2.15;;;15.20;99.90;;;;;;4994582;28;20173;-51
2022/08/27 02:42:46;;;;;;;4.05;2.08;;;15.20;99.90;;;;;;4994552;28;20242;-51
2022/08/27 02:45:14;;;;;;;6.85;2.40;;;15.10;99.90;;;;;;4994458;28;20171;-51
2022/08/27 02:47:40;;;;;;;2.47;2.05;;;15.10;99.90;;;;;;4994403;28;20183;-52
2022/08/27 02:50:06;;;;;;;4.57;2.45;;;15.10;99.90;;;;;;4994262;28;20700;-51
2022/08/27 02:52:32;;;;;;;3.55;2.10;;;15.00;99.90;;;;;;4994203;28;20202;-51
2022/08/27 02:54:58;;;;;;;6.68;2.40;;;15.00;99.90;;;;;;4994292;28;20222;-51
2022/08/27 02:57:24;;;;;;;5.07;2.67;;;14.90;99.90;;;;;;4994224;28;20175;-51
2022/08/27 02:59:51;;;;;;;4.05;2.33;;;14.90;99.90;;;;;;4994169;28;20249;-51
2022/08/27 03:02:17;;;;;;;4.63;2.25;;;14.90;99.90;;;;;;4994062;28;20175;-51
2022/08/27 03:04:43;;;;;;;6.20;2.10;;;14.30;99.90;;;;;;4994086;28;20167;-52
2022/08/27 03:07:09;;;;;;;2.88;2.15;;;14.80;99.90;;;;;;4994095;28;20222;-51
2022/08/27 03:09:34;;;;;;;10.98;2.30;;;14.90;99.90;;;;;;4993993;28;20558;-51
2022/08/27 03:12:01;;;;;;;4.43;2.33;;;14.90;99.90;;;;;;4992675;28;20198;-51
2022/08/27 03:14:27;;;;;;;6.15;1.80;;;14.90;99.90;;;;;;4993968;28;20642;-51
2022/08/27 03:16:53;;;;;;;3.10;2.13;;;14.90;99.90;;;;;;4993880;28;20206;-51
2022/08/27 03:19:20;;;;;;;3.33;2.10;;;14.90;99.90;;;;;;4993775;28;20174;-51
2022/08/27 03:21:46;;;;;;;4.82;2.17;;;14.80;99.90;;;;;;4994011;28;20229;-51
2022/08/27 03:24:11;;;;;;;3.05;2.15;;;14.80;99.90;;;;;;4993918;28;20185;-51
2022/08/27 03:26:38;;;;;;;3.65;2.30;;;14.80;99.90;;;;;;4993747;28;20163;-52
2022/08/27 03:29:04;;;;;;;5.07;2.20;;;14.80;99.90;;;;;;4993339;28;20227;-52
2022/08/27 03:31:30;;;;;;;4.40;2.63;;;14.80;99.90;;;;;;4993583;28;20289;-51
2022/08/27 03:34:06;;;;;;;3.47;2.05;;;14.80;99.90;;;;;;4993664;28;20629;-52
2022/08/27 03:36:32;;;;;;;8.95;2.63;;;14.80;99.90;;;;;;4993487;28;20186;-52
2022/08/27 03:38:58;;;;;;;3.90;2.10;;;14.80;99.90;;;;;;4993704;28;20171;-51
2022/08/27 03:41:24;;;;;;;5.32;2.30;;;14.80;99.90;;;;;;4993548;28;20229;-51
2022/08/27 03:43:53;;;;;;;4.38;2.30;;;14.80;99.90;;;;;;4993569;28;20183;-51
2022/08/27 03:46:19;;;;;;;3.00;2.30;;;14.80;99.90;;;;;;4993350;28;20167;-51
2022/08/27 03:48:46;;;;;;;6.07;2.20;;;14.80;99.90;;;;;;4993553;28;20262;-51
2022/08/27 03:51:14;;;;;;;4.28;2.20;;;14.80;99.90;;;;;;4993292;28;20230;-52
2022/08/27 03:53:42;;;;;;;4.28;2.20;;;14.80;99.90;;;;;;4993299;28;20207;-51
2022/08/27 03:56:09;;;;;;;3.65;2.35;;;14.80;99.90;;;;;;4993337;28;20206;-52
2022/08/27 03:58:35;;;;;;;4.88;2.40;;;14.70;99.90;;;;;;4993207;28;20167;-52
2022/08/27 04:01:02;;;;;;;3.65;2.20;;;14.70;99.90;;;;;;4993169;28;20163;-52
2022/08/27 04:03:28;;;;;;;3.03;2.20;;;14.70;99.90;;;;;;4993172;28;20171;-52
2022/08/27 04:05:55;;;;;;;4.10;2.30;;;14.70;99.90;;;;;;4993041;28;20186;-52
2022/08/27 04:08:21;;;;;;;7.57;2.50;;;14.60;99.90;;;;;;4993027;28;20180;-52
2022/08/27 04:10:47;;;;;;;7.28;2.00;;;14.60;99.90;;;;;;4992905;28;20301;-52
2022/08/27 04:13:14;;;;;;;2.28;1.95;;;14.60;99.90;;;;;;4992873;28;20178;-52
2022/08/27 04:15:47;;;;;;;7.13;2.33;;;14.60;99.90;;;;;;4992826;28;20211;-52
2022/08/27 04:18:15;;;;;;;3.95;2.40;;;14.60;99.90;;;;;;4993055;28;20171;-52
2022/08/27 04:20:45;;;;;;;6.20;2.30;;;14.60;99.90;;;;;;4992695;28;20232;-52
2022/08/27 04:23:11;;;;;;;8.50;2.83;;;14.50;99.90;;;;;;4992585;28;20171;-52
2022/08/27 04:25:44;;;;;;;7.77;2.27;;;14.50;99.90;;;;;;4992657;28;20258;-52
2022/08/27 04:28:11;;;;;;;6.13;2.10;;;14.50;99.90;;;;;;4992549;28;20174;-51
2022/08/27 04:30:44;;;;;;;6.93;2.42;;;14.50;99.90;;;;;;4992353;28;20261;-52
2022/08/27 04:33:12;;;;;;;3.30;2.00;;;14.50;99.90;;;;;;4992535;28;20171;-52
2022/08/27 04:35:38;;;;;;;6.72;2.40;;;14.40;99.90;;;;;;4992433;28;20195;-52
2022/08/27 04:38:04;;;;;;;6.37;2.33;;;14.50;99.90;;;;;;4992421;28;20206;-52
2022/08/27 04:43:15;;;;;;;8.23;2.78;;;14.40;99.90;;;;;;4992509;28;20221;-51
2022/08/27 04:45:45;;;;;;;5.55;2.17;;;14.40;99.90;;;;;;4992433;28;20640;-52
2022/08/27 04:48:12;;;;;;;3.70;2.63;;;14.50;99.90;;;;;;4992401;28;20175;-52
2022/08/27 04:50:46;;;;;;;3.90;2.28;;;14.40;99.90;;;;;;4992170;28;20258;-52
2022/08/27 04:53:13;;;;;;;4.03;2.00;;;14.40;99.90;;;;;;4992145;28;20180;-52
2022/08/27 04:55:47;;;;;;;5.50;2.28;;;14.40;99.90;;;;;;4991988;28;20191;-51
2022/08/27 04:58:14;;;;;;;4.43;2.37;;;14.30;99.90;;;;;;4992109;28;20175;-51
2022/08/27 05:00:52;;;;;;;4.25;2.15;;;14.30;99.90;;;;;;4992164;28;20175;-52
2022/08/27 05:03:24;;;;;;;10.80;3.10;;;14.30;99.90;;;;;;4991988;28;20230;-52
2022/08/27 05:05:52;;;;;;;5.47;3.00;;;14.20;99.90;;;;;;4991937;28;20274;-52
2022/08/27 05:08:18;;;;;;;3.72;2.85;;;14.30;99.90;;;;;;4991992;28;20250;-52
2022/08/27 05:10:46;;;;;;;7.03;2.60;;;14.30;99.90;;;;;;4991890;28;20761;-52
2022/08/27 05:13:12;;;;;;;3.90;3.00;;;14.30;99.90;;;;;;4991913;28;20171;-52
2022/08/27 05:15:39;;;;;;;7.13;2.47;;;14.30;99.90;;;;;;4991840;28;20678;-52
2022/08/27 05:18:05;;;;;;;5.25;2.85;;;14.30;99.90;;;;;;4991752;28;20661;-52
2022/08/27 05:20:32;;;;;;;3.63;2.50;;;14.30;99.90;;;;;;4991863;28;20182;-52
2022/08/27 05:22:58;;;;;;;4.97;2.70;;;14.30;99.90;;;;;;4991733;28;20182;-52
2022/08/27 05:25:24;;;;;;;7.27;2.73;;;14.30;99.90;;;;;;4991694;28;20614;-52
2022/08/27 05:27:50;;;;;;;4.90;2.83;;;14.30;99.90;;;;;;4991733;28;20183;-52
2022/08/27 05:30:17;;;;;;;4.75;2.67;;;14.30;99.90;;;;;;4991442;28;20222;-52
2022/08/27 05:32:43;;;;;;;2.95;2.50;;;14.30;99.90;;;;;;4991617;28;20250;-52
2022/08/27 05:35:09;;;;;;;5.43;2.50;;;14.30;99.90;;;;;;4991467;28;20270;-52
2022/08/27 05:37:35;;;;;;;6.43;3.00;;;14.30;99.90;;;;;;4991741;28;20327;-53
2022/08/27 05:40:05;;;;;;;7.10;3.20;;;14.40;99.90;;;;;;4991535;28;20262;-52
2022/08/27 05:42:32;;;;;;;4.15;2.65;;;14.50;99.90;;;;;;4991493;28;20175;-52
2022/08/27 05:44:58;;;;;;;4.37;2.70;;;14.50;99.90;;;;;;4991508;28;20184;-53
2022/08/27 05:47:24;;;;;;;7.53;2.60;;;14.60;99.90;;;;;;4991246;28;20263;-52
2022/08/27 05:49:54;;;;;;;4.35;3.05;;;14.60;99.90;;;;;;4990078;28;20301;-52
2022/08/27 05:52:20;;;;;;;5.75;2.92;;;14.60;99.90;;;;;;4994008;28;20172;-52
2022/08/27 05:54:46;;;;;;;4.30;2.78;;;14.60;99.90;;;;;;4995613;28;20190;-51
2022/08/27 05:57:12;;;;;;;4.60;2.60;;;14.70;99.90;;;;;;4995465;28;20172;-53
2022/08/27 06:02:23;;;;;;;4.57;2.67;;;14.70;99.90;;;;;;4995688;28;20225;-52
2022/08/27 06:04:48;;;;;;;4.32;2.83;;;14.80;99.90;;;;;;4995395;28;20175;-53
2022/08/27 06:07:14;;;;;;;5.13;2.90;;;14.80;99.90;;;;;;4995185;28;20630;-53
2022/08/27 06:09:41;;;;;;;5.47;3.05;;;14.80;99.90;;;;;;4995237;28;20191;-53
2022/08/27 06:12:08;;;;;;;5.30;3.58;;;14.80;99.90;;;;;;4994990;28;20534;-52
2022/08/27 06:14:36;;;;;;;9.23;3.80;;;14.90;99.90;;;;;;4995100;28;20237;-52
2022/08/27 06:17:01;;;;;;;6.07;3.38;;;15.00;99.90;;;;;;4995228;28;20179;-53
2022/08/27 06:19:27;;;;;;;8.83;3.97;;;15.00;99.90;;;;;;4995116;28;20541;-52
2022/08/27 06:21:54;;;;;;;9.68;3.92;;;15.00;99.90;;;;;;4995059;28;20223;-52
2022/08/27 06:24:21;;;;;;;8.23;3.65;;;15.10;99.90;;;;;;4995003;28;20321;-52
2022/08/27 06:26:47;;;;;;;7.55;4.25;;;15.10;99.90;;;;;;4994884;28;20188;-52
2022/08/27 06:29:13;;;;;;;8.07;4.15;;;15.20;99.90;;;;;;4994855;28;20610;-53
2022/08/27 06:31:39;;;;;;;11.43;4.10;;;15.20;99.90;;;;;;4994692;28;20219;-52
2022/08/27 06:34:07;;;;;;;10.88;4.00;;;15.30;99.90;;;;;;4994857;28;20175;-52
2022/08/27 06:36:36;;;;;;;6.68;3.58;;;15.30;99.90;;;;;;4994717;28;20190;-52
2022/08/27 06:39:02;;;;;;;6.55;4.07;;;15.40;99.90;;;;;;4994638;28;20179;-52
2022/08/27 06:41:28;;;;;;;8.38;4.13;;;15.40;99.90;;;;;;4994489;28;20163;-52
2022/08/27 06:43:55;;;;;;;7.50;4.10;;;15.50;99.90;;;;;;4994675;28;20225;-52
2022/08/27 06:46:24;;;;;;;5.80;4.10;;;15.60;99.90;;;;;;4994534;28;20171;-52
2022/08/27 06:48:55;;;;;;;7.15;4.18;;;15.70;99.90;;;;;;4994532;28;20171;-52
2022/08/27 06:51:26;;;;;;;6.05;4.20;;;15.80;99.90;;;;;;4994235;28;20207;-52
2022/08/27 06:53:54;;;;;;;9.70;4.85;;;15.90;99.90;;;;;;4994369;28;20218;-52
2022/08/27 06:56:20;;;;;;;9.00;4.40;;;16.00;99.90;;;;;;4994527;28;20186;-52
2022/08/27 06:58:47;;;;;;;9.35;3.85;;;16.10;99.90;;;;;;4994357;28;20171;-52
2022/08/27 07:01:24;;;;;;;9.70;4.25;;;16.20;99.90;;;;;;4994267;28;20199;-52
2022/08/27 07:03:50;;;;;;;9.77;5.25;;;16.30;99.90;;;;;;4993513;28;20190;-52
2022/08/27 07:06:17;;;;;;;9.63;4.75;;;16.50;99.90;;;;;;4994111;28;20258;-52
2022/08/27 07:08:44;;;;;;;10.70;5.55;;;16.60;99.90;;;;;;4994107;28;20194;-53
2022/08/27 07:11:11;;;;;;;13.93;7.70;;;16.70;99.90;;;;;;4994188;28;20222;-52
2022/08/27 07:13:38;;;;;;;12.90;6.28;;;16.80;99.90;;;;;;4994050;28;20226;-52
2022/08/27 07:16:05;;;;;;;14.10;7.70;;;16.80;99.90;;;;;;4993928;28;20183;-52
2022/08/27 07:18:32;;;;;;;10.73;6.78;;;17.00;99.90;;;;;;4993878;28;20230;-52
2022/08/27 07:20:57;;;;;;;15.48;8.18;;;17.10;99.90;;;;;;4993915;28;20175;-53
2022/08/27 07:23:23;;;;;;;19.13;10.25;;;17.20;99.90;;;;;;4993786;28;20179;-52
2022/08/27 07:25:49;;;;;;;22.13;9.85;;;17.30;99.90;;;;;;4993938;28;20171;-52
2022/08/27 07:28:14;;;;;;;19.38;10.32;;;17.40;99.90;;;;;;4993682;28;20190;-52
2022/08/27 07:30:40;;;;;;;18.15;10.15;;;17.50;99.90;;;;;;4993594;28;20666;-52
2022/08/27 07:33:06;;;;;;;18.55;10.90;;;17.60;99.90;;;;;;4993708;28;20163;-53
2022/08/27 07:35:31;;;;;;;19.92;11.32;;;17.70;99.90;;;;;;4993594;28;20175;-52
2022/08/27 07:37:57;;;;;;;19.02;10.70;;;17.90;99.90;;;;;;4993761;28;20690;-53
2022/08/27 07:40:23;;;;;;;18.55;9.90;;;18.00;99.90;;;;;;4993382;28;20670;-52
2022/08/27 07:45:33;;;;;;;17.20;9.52;;;18.20;99.90;;;;;;4993377;28;20230;-53
2022/08/27 07:47:59;;;;;;;16.20;9.93;;;18.40;99.90;;;;;;4993392;28;20194;-52
2022/08/27 07:50:25;;;;;;;18.63;10.43;;;18.40;99.90;;;;;;4993224;28;20202;-52
2022/08/27 07:52:50;;;;;;;21.48;11.50;;;18.50;99.90;;;;;;4993329;28;20175;-52
2022/08/27 07:55:17;;;;;;;18.60;10.93;;;18.60;99.90;;;;;;4993339;28;20720;-52
2022/08/27 07:57:44;;;;;;;20.02;11.13;;;18.60;99.90;;;;;;4993188;28;20650;-53
2022/08/27 08:00:11;;;;;;;16.95;10.57;;;18.70;99.90;;;;;;4993270;28;20180;-52
2022/08/27 08:02:38;;;;;;;16.95;9.52;;;18.70;99.90;;;;;;4992874;28;20183;-52
2022/08/27 08:05:05;;;;;;;17.13;9.15;;;18.80;99.90;;;;;;4992996;28;20171;-52
2022/08/27 08:07:32;;;;;;;17.95;10.43;;;19.00;99.90;;;;;;4992924;28;20246;-52
2022/08/27 08:09:58;;;;;;;21.05;9.80;;;18.90;99.90;;;;;;4992842;28;20260;-52
2022/08/27 08:12:24;;;;;;;19.30;9.52;;;19.20;99.90;;;;;;4992850;28;20171;-52
2022/08/27 08:14:49;;;;;;;19.35;10.32;;;19.40;99.90;;;;;;4991868;28;20769;-53
2022/08/27 08:17:15;;;;;;;17.40;9.40;;;19.50;99.90;;;;;;4992773;28;20538;-53
2022/08/27 08:19:41;;;;;;;17.05;8.82;;;19.50;99.90;;;;;;4992775;28;20662;-52
2022/08/27 08:22:07;;;;;;;14.57;8.13;;;19.90;99.90;;;;;;4992910;28;20269;-54
2022/08/27 08:24:35;;;;;;;15.05;7.93;;;20.90;99.90;;;;;;4992733;28;20179;-52
2022/08/27 08:27:00;;;;;;;17.30;8.30;;;21.80;99.90;;;;;;4992616;28;20215;-53
2022/08/27 08:29:26;;;;;;;10.15;8.10;;;22.60;99.90;;;;;;4992405;28;20297;-53
2022/08/27 08:31:52;;;;;;;13.85;7.45;;;23.40;99.90;;;;;;4992573;28;20214;-53
2022/08/27 08:34:18;;;;;;;13.07;7.93;;;24.20;99.90;;;;;;4992426;28;20174;-53
2022/08/27 08:36:50;;;;;;;15.48;7.90;;;24.60;99.90;;;;;;5088882;27;20546;-52
2022/08/27 08:39:18;;;;;;;13.15;7.72;;;24.90;99.90;;;;;;5088458;28;20245;-52
2022/08/27 08:41:50;;;;;;;16.35;8.30;;;25.00;99.90;;;;;;5088460;28;20168;-52
2022/08/27 08:44:32;;;;;;;14.27;8.02;;;25.10;99.90;;;;;;5088329;28;20168;-53
2022/08/27 08:47:08;;;;;;;14.65;7.78;;;24.60;99.90;;;;;;5088404;28;20642;-52
2022/08/27 08:49:37;;;;;;;21.67;9.20;;;24.20;99.90;;;;;;5088193;28;20267;-52
2022/08/27 08:52:34;;;;;;;15.00;8.85;;;24.20;99.90;;;;;;5088283;28;20164;-52
2022/08/27 08:55:03;;;;;;;13.38;8.45;;;24.10;99.90;;;;;;5088256;28;20200;-52
2022/08/27 08:57:35;;;;;;;13.05;7.93;;;25.30;99.90;;;;;;5088023;28;20638;-52
2022/08/27 09:00:13;;;;;;;14.20;7.57;;;26.30;99.90;;;;;;5088202;28;20271;-52
2022/08/27 09:02:42;;;;;;;11.15;7.32;;;27.10;99.90;;;;;;5088101;28;20209;-52
2022/08/27 09:05:09;;;;;;;15.63;7.90;;;26.80;99.90;;;;;;5087983;28;20225;-51
2022/08/27 09:07:44;;;;;;;15.57;8.13;;;27.30;99.90;;;;;;5088108;28;20176;-52
2022/08/27 09:10:10;;;;;;;12.55;8.23;;;27.10;99.90;;;;;;5087808;28;20183;-52
2022/08/27 09:12:36;;;;;;;14.55;8.75;;;26.80;99.90;;;;;;5087821;28;20172;-52
2022/08/27 09:15:12;;;;;;;12.48;8.68;;;25.70;99.90;;;;;;5087837;28;20192;-52
2022/08/27 09:17:39;;;;;;;12.10;8.20;;;25.40;99.90;;;;;;5087774;28;20179;-53
2022/08/27 09:20:07;;;;;;;15.70;8.30;;;24.90;99.90;;;;;;5088025;28;20176;-52
2022/08/27 09:22:56;;;;;;;17.80;9.48;;;24.30;99.90;;;;;;5087938;28;20191;-52
2022/08/27 09:25:30;;;;;;;16.00;8.70;;;23.90;99.90;;;;;;5087553;28;20172;-52
2022/08/27 09:27:59;;;;;;;13.13;9.02;;;23.60;99.90;;;;;;5087324;28;20572;-53
2022/08/27 09:30:28;;;;;;;17.00;8.50;;;23.30;99.90;;;;;;5087351;28;20176;-53
2022/08/27 09:32:58;;;;;;;15.07;8.32;;;23.10;99.90;;;;;;5087334;28;20164;-53
2022/08/27 09:35:26;;;;;;;14.15;8.38;;;22.90;99.90;;;;;;5087222;28;20259;-52
2022/08/27 09:37:56;;;;;;;17.55;9.48;;;22.80;99.90;;;;;;5087372;28;20252;-53
2022/08/27 09:40:30;;;;;;;17.00;8.30;;;22.60;99.90;;;;;;5087306;28;20202;-52
2022/08/27 09:43:08;;;;;;;12.13;8.43;;;22.70;99.90;;;;;;5087433;28;20163;-52
2022/08/27 09:45:34;;;;;;;18.67;9.00;;;22.80;99.90;;;;;;5087066;28;20187;-52
2022/08/27 09:48:21;;;;;;;16.15;8.77;;;23.00;99.90;;;;;;5075044;28;20168;-52
2022/08/27 09:50:53;;;;;;;15.50;8.27;;;23.10;99.90;;;;;;5073495;28;20176;-52
2022/08/27 09:53:30;;;;;;;12.18;8.05;;;23.30;99.90;;;;;;5073807;28;20233;-52
2022/08/27 09:56:02;;;;;;;11.85;7.50;;;23.60;99.90;;;;;;5073549;28;20219;-52
2022/08/27 09:58:31;;;;;;;12.75;7.85;;;23.60;99.90;;;;;;5073551;28;20161;-52
2022/08/27 10:01:04;;;;;;;18.23;7.70;;;23.80;99.90;;;;;;5073431;28;20169;-53
2022/08/27 10:03:31;;;;;;;15.38;7.45;;;24.00;99.90;;;;;;5073243;28;20175;-53
2022/08/27 10:05:56;;;;;;;14.93;8.25;;;24.10;99.90;;;;;;5073310;28;20247;-52
2022/08/27 10:08:49;;;;;;;10.52;7.63;;;24.30;99.90;;;;;;5073380;28;20227;-52
2022/08/27 10:11:21;;;;;;;13.90;7.07;;;24.30;99.90;;;;;;5073167;28;20259;-51
2022/08/27 10:14:11;;;;;;;12.93;7.00;;;24.80;99.90;;;;;;5073116;28;20172;-51
2022/08/27 10:17:05;;;;;;;15.88;6.13;;;25.20;99.90;;;;;;5072765;28;20208;-52
2022/08/27 10:20:03;;;;;;;13.88;7.25;;;25.70;99.90;;;;;;5073362;28;20184;-52
2022/08/27 10:22:43;;;;;;;11.45;5.82;;;26.00;99.90;;;;;;5073005;28;20172;-53
2022/08/27 10:25:34;;;;;;;11.45;6.45;;;26.90;99.90;;;;;;5073151;28;20218;-53
2022/08/27 10:28:00;;;;;;;11.30;6.28;;;27.70;99.90;;;;;;5072947;28;20172;-52
2022/08/27 10:30:49;;;;;;;8.70;5.35;;;28.70;99.90;;;;;;5072855;28;20263;-52
2022/08/27 10:33:46;;;;;;;11.43;6.38;;;30.20;99.90;;;;;;5072993;28;20169;-53
2022/08/27 10:36:25;;;;;;;10.68;5.88;;;31.20;99.90;;;;;;5043685;28;20232;-53
2022/08/27 10:39:11;;;;;;;8.65;5.70;;;32.40;99.90;;;;;;5072731;28;20176;-52
2022/08/27 10:41:42;;;;;;;14.90;6.28;;;33.20;99.90;;;;;;5072534;28;20218;-54
2022/08/27 10:44:29;;;;;;;8.77;5.50;;;33.60;99.90;;;;;;5072667;28;20168;-53
2022/08/27 10:47:33;;;;;;;9.18;5.15;;;34.30;99.90;;;;;;5072601;28;20203;-52
2022/08/27 10:50:07;;;;;;;9.02;5.57;;;34.90;99.90;;;;;;5072606;28;20179;-52
2022/08/27 10:52:54;;;;;;;7.95;5.20;;;35.30;99.90;;;;;;5072420;28;20176;-53
2022/08/27 10:55:32;;;;;;;10.63;5.55;;;36.10;99.90;;;;;;5072324;28;20216;-53
2022/08/27 10:58:32;;;;;;;8.95;5.30;;;36.50;99.90;;;;;;5072025;28;20168;-53
2022/08/27 11:01:12;;;;;;;9.60;5.47;;;36.80;99.90;;;;;;5069087;28;20202;-52
2022/08/27 11:03:42;;;;;;;10.98;4.65;;;36.90;99.90;;;;;;5072206;28;20239;-53
2022/08/27 11:06:52;;;;;;;9.77;5.75;;;36.80;99.90;;;;;;5072043;28;20168;-53
2022/08/27 11:09:29;;;;;;;9.38;4.70;;;37.10;99.90;;;;;;5010121;28;20182;-53
2022/08/27 11:12:02;;;;;;;6.63;4.10;;;37.70;99.90;;;;;;5010110;28;20201;-53
2022/08/27 11:14:51;;;;;;;7.45;4.22;;;38.00;99.90;;;;;;5046726;28;20259;-53
2022/08/27 11:17:23;;;;;;;8.02;4.15;;;38.50;99.90;;;;;;5071832;28;20178;-53
2022/08/27 11:20:00;;;;;;;5.53;4.53;;;38.80;99.90;;;;;;5071845;28;20164;-53
2022/08/27 11:22:34;;;;;;;10.30;4.72;;;39.10;99.90;;;;;;5071717;28;20179;-52
2022/08/27 11:25:15;;;;;;;10.07;4.72;;;39.10;99.90;;;;;;5071768;28;20237;-53
2022/08/27 11:27:42;;;;;;;7.47;5.13;;;39.30;99.90;;;;;;5071668;28;20210;-53
2022/08/27 11:30:23;;;;;;;9.43;4.20;;;39.50;99.90;;;;;;5071761;28;20240;-53
2022/08/27 11:33:13;;;;;;;8.73;4.53;;;39.70;99.90;;;;;;5071696;28;20263;-53
2022/08/27 11:35:48;;;;;;;10.27;4.20;;;39.90;99.90;;;;;;5071437;28;20220;-53
2022/08/27 11:38:43;;;;;;;6.88;4.03;;;40.10;99.90;;;;;;5071559;28;20172;-52
2022/08/27 11:41:49;;;;;;;9.05;3.30;;;40.10;99.90;;;;;;5071446;28;20207;-53
2022/08/27 11:44:19;;;;;;;6.70;3.90;;;40.00;99.90;;;;;;5071578;28;20214;-56
2022/08/27 11:46:48;;;;;;;9.63;3.60;;;39.30;99.90;;;;;;5071517;28;20179;-53
2022/08/27 11:49:43;;;;;;;10.43;3.00;;;39.90;99.90;;;;;;5071392;28;20172;-53
2022/08/27 11:52:11;;;;;;;5.90;2.58;;;40.00;99.90;;;;;;5069747;28;20179;-53
2022/08/27 11:54:49;;;;;;;4.78;2.95;;;40.10;99.90;;;;;;5071310;28;20176;-53
2022/08/27 11:57:32;;;;;;;5.35;2.58;;;40.30;99.90;;;;;;5071252;28;20217;-53
2022/08/27 12:00:32;;;;;;;6.05;3.70;;;41.00;99.90;;;;;;5071130;28;20175;-53
2022/08/27 12:03:01;;;;;;;6.57;3.75;;;41.70;99.90;;;;;;5071353;28;20179;-53
2022/08/27 12:05:45;;;;;;;7.03;3.33;;;38.00;99.90;;;;;;5071221;28;20172;-53
2022/08/27 12:08:22;;;;;;;6.13;3.17;;;37.10;99.90;;;;;;5071150;28;20172;-53
2022/08/27 12:11:24;;;;;;;5.13;2.65;;;37.20;99.90;;;;;;5070798;28;20190;-53
2022/08/27 12:13:55;;;;;;;4.45;2.78;;;38.60;99.90;;;;;;5071198;28;20182;-53
2022/08/27 12:16:33;;;;;;;4.25;2.05;;;39.90;99.90;;;;;;5071107;28;20207;-53
2022/08/27 12:19:22;;;;;;;5.32;2.60;;;40.30;99.90;;;;;;5070982;28;20180;-53
2022/08/27 12:22:29;;;;;;;6.15;2.67;;;41.00;99.90;;;;;;5070958;28;20221;-53
2022/08/27 12:24:57;;;;;;;6.28;2.58;;;41.30;99.90;;;;;;5071008;28;20164;-53
2022/08/27 12:27:35;;;;;;;7.80;2.90;;;40.90;99.90;;;;;;5070836;28;20635;-53
2022/08/27 12:30:20;;;;;;;4.38;2.50;;;41.30;99.90;;;;;;5070834;28;20167;-53
2022/08/27 12:32:50;;;;;;;4.93;2.10;;;41.30;99.90;;;;;;5070851;28;20179;-53
2022/08/27 12:35:30;;;;;;;4.68;1.70;;;41.60;99.90;;;;;;5070588;28;20259;-53
2022/08/27 12:38:15;;;;;;;7.57;1.77;;;41.90;99.90;;;;;;5070996;28;20266;-53
2022/08/27 12:41:07;;;;;;;5.90;2.25;;;42.30;98.20;;;;;;5070713;28;20662;-53
2022/08/27 12:43:42;;;;;;;5.28;2.20;;;40.20;97.80;;;;;;5070678;28;20313;-53
2022/08/27 12:46:12;;;;;;;5.70;1.83;;;39.90;98.30;;;;;;5070629;28;20209;-53
2022/08/27 12:48:54;;;;;;;4.60;1.45;;;40.80;98.50;;;;;;5070976;28;20217;-53
2022/08/27 12:51:34;;;;;;;3.83;1.30;;;40.90;99.50;;;;;;5070765;28;20168;-53
2022/08/27 12:54:32;;;;;;;2.67;1.25;;;40.70;98.80;;;;;;5070819;28;20188;-53
2022/08/27 12:57:26;;;;;;;2.85;1.40;;;39.80;97.60;;;;;;5070658;28;20741;-53
2022/08/27 13:00:12;;;;;;;3.08;1.63;;;40.00;98.60;;;;;;5070631;28;20164;-53
2022/08/27 13:02:46;;;;;;;2.72;1.48;;;40.50;98.20;;;;;;5070453;28;20601;-53
2022/08/27 13:05:16;;;;;;;4.93;1.52;;;40.80;97.20;;;;;;5070670;28;20256;-53
2022/08/27 13:07:45;;;;;;;4.32;1.83;;;40.90;96.90;;;;;;5070556;28;20189;-53
2022/08/27 13:10:27;;;;;;;2.65;1.50;;;39.70;96.00;;;;;;5070232;28;20183;-52
2022/08/27 13:13:07;;;;;;;5.93;1.85;;;37.50;96.60;;;;;;5070416;28;20183;-51